createdAt,value
2023-01-02T00:00:27.586Z,70.21
2023-01-02T00:05:27.483Z,69.81
2023-01-02T00:10:27.434Z,70.01
2023-01-02T00:15:27.335Z,70.11
2023-01-02T00:20:27.289Z,70.31
2023-01-02T00:25:27.208Z,70.14
2023-01-02T00:30:29.936Z,70.11
2023-01-02T00:35:28.058Z,70.11
2023-01-02T00:40:27.076Z,70.11
2023-01-02T00:45:26.934Z,70.21
2023-01-02T00:50:26.889Z,69.06
2023-01-02T00:55:26.796Z,68.12
2023-01-02T01:00:27.502Z,67.17
2023-01-02T01:05:26.665Z,66.66
2023-01-02T01:10:26.661Z,66.43
2023-01-02T01:15:26.511Z,66.02
2023-01-02T01:20:26.469Z,65.82
2023-01-02T01:25:26.418Z,65.82
2023-01-02T01:30:26.363Z,65.92
2023-01-02T01:35:26.248Z,66.02
2023-01-02T01:40:26.181Z,65.82
2023-01-02T01:45:26.209Z,65.62
2023-01-02T01:50:26.078Z,65.72
2023-01-02T01:55:25.971Z,65.52
2023-01-02T02:00:25.947Z,65.01
2023-01-02T02:05:25.839Z,64.91
2023-01-02T02:10:25.801Z,65.31
2023-01-02T02:15:25.713Z,65.65
2023-01-02T02:20:25.638Z,65.45
2023-01-02T02:25:25.600Z,65.34
2023-01-02T02:30:25.529Z,65.34
2023-01-02T02:35:25.450Z,65.24
2023-01-02T02:40:25.441Z,65.24
2023-01-02T02:45:25.315Z,65.45
2023-01-02T02:50:25.271Z,65.45
2023-01-02T02:55:25.233Z,65.75
2023-01-02T03:00:25.145Z,65.88
2023-01-02T03:05:25.102Z,65.68
2023-01-02T03:10:25.025Z,65.37
2023-01-02T03:15:24.957Z,66.08
2023-01-02T03:20:24.930Z,66.02
2023-01-02T03:25:24.844Z,66.12
2023-01-02T03:30:24.780Z,66.83
2023-01-02T03:35:24.715Z,67.06
2023-01-02T03:40:24.641Z,67.47
2023-01-02T03:45:24.566Z,67.67
2023-01-02T03:50:24.456Z,66.66
2023-01-02T03:55:24.453Z,66.63
2023-01-02T04:00:24.348Z,66.42
2023-01-02T04:05:24.302Z,66.02
2023-01-02T04:10:24.222Z,66.42
2023-01-02T04:15:24.209Z,65.51
2023-01-02T04:20:24.083Z,65.17
2023-01-02T04:25:24.032Z,64.97
2023-01-02T04:30:23.955Z,65.37
2023-01-02T04:35:23.865Z,64.76
2023-01-02T04:40:23.838Z,64.76
2023-01-02T04:45:23.745Z,63.95
2023-01-02T04:50:24.483Z,64.26
2023-01-02T04:55:23.604Z,64.36
2023-01-02T05:00:23.499Z,65.10
2023-01-02T05:05:24.241Z,65.20
2023-01-02T05:10:23.382Z,65.23
2023-01-02T05:15:23.477Z,65.64
2023-01-02T05:20:23.268Z,65.94
2023-01-02T05:25:23.208Z,66.69
2023-01-02T05:30:23.150Z,66.99
2023-01-02T05:35:28.471Z,67.33
2023-01-02T05:40:24.049Z,66.92
2023-01-02T05:45:22.932Z,67.53
2023-01-02T05:50:22.897Z,67.33
2023-01-02T05:55:22.786Z,67.74
2023-01-02T06:00:22.724Z,68.07
2023-01-02T06:05:22.666Z,68.07
2023-01-02T06:10:22.607Z,68.18
2023-01-02T06:15:22.561Z,67.77
2023-01-02T06:20:22.472Z,67.87
2023-01-02T06:25:22.444Z,67.97
2023-01-02T06:30:22.354Z,68.41
2023-01-02T06:35:22.275Z,68.92
2023-01-02T06:40:22.203Z,69.36
2023-01-02T06:45:22.220Z,70.07
2023-01-02T06:50:25.472Z,70.17
2023-01-02T06:55:23.059Z,70.51
2023-01-02T07:00:21.973Z,70.61
2023-01-02T07:05:24.723Z,71.15
2023-01-02T07:10:21.811Z,72.11
2023-01-02T07:15:21.777Z,72.82
2023-01-02T07:20:21.686Z,73.27
2023-01-02T07:25:21.614Z,73.77
2023-01-02T07:30:21.568Z,74.11
2023-01-02T07:35:21.485Z,74.11
2023-01-02T07:40:21.646Z,74.63
2023-01-02T07:45:21.350Z,81.19
2023-01-02T07:50:21.287Z,71.94
2023-01-02T07:55:21.220Z,70.15
2023-01-02T08:00:21.183Z,67.08
2023-01-02T08:05:21.072Z,67.25
2023-01-02T08:10:21.008Z,66.61
2023-01-02T08:15:21.003Z,66.04
2023-01-02T08:20:20.884Z,69.98
2023-01-02T08:25:21.028Z,66.71
2023-01-02T08:30:20.790Z,67.22
2023-01-02T08:35:36.852Z,66.01
2023-01-02T08:40:21.865Z,66.78
2023-01-02T08:45:20.578Z,63.21
2023-01-02T08:50:20.496Z,65.84
2023-01-02T08:55:20.439Z,63.25
2023-01-02T09:00:20.344Z,64.70
2023-01-02T09:05:20.306Z,64.39
2023-01-02T09:10:20.222Z,67.52
2023-01-02T09:15:20.182Z,64.59
2023-01-02T09:20:20.091Z,65.40
2023-01-02T09:25:24.148Z,64.67
2023-01-02T09:30:19.961Z,63.48
2023-01-02T09:35:19.896Z,64.03
2023-01-02T09:40:19.872Z,63.62
2023-01-02T09:45:19.773Z,61.16
2023-01-02T09:50:19.740Z,63.25
2023-01-02T09:55:19.744Z,68.51
2023-01-02T10:00:19.597Z,62.85
2023-01-02T10:05:19.512Z,64.32
2023-01-02T10:10:19.440Z,61.94
2023-01-02T10:15:19.384Z,64.59
2023-01-02T10:20:24.014Z,63.38
2023-01-02T10:25:20.264Z,64.26
2023-01-02T10:30:19.205Z,63.55
2023-01-02T10:35:19.130Z,61.03
2023-01-02T10:40:19.034Z,60.97
2023-01-02T10:45:19.048Z,61.53
2023-01-02T10:50:18.966Z,61.71
2023-01-02T10:55:18.847Z,60.80
2023-01-02T11:00:24.030Z,61.43
2023-01-02T11:05:19.741Z,63.31
2023-01-02T11:10:18.658Z,61.66
2023-01-02T11:15:18.577Z,62.57
2023-01-02T11:20:18.555Z,62.81
2023-01-02T11:25:18.460Z,62.81
2023-01-02T11:30:18.545Z,62.85
2023-01-02T11:35:18.323Z,63.81
2023-01-02T11:40:18.291Z,62.16
2023-01-02T11:45:18.227Z,61.25
2023-01-02T11:50:18.113Z,62.74
2023-01-02T11:55:18.083Z,60.72
2023-01-02T12:00:18.024Z,60.22
2023-01-02T12:05:17.921Z,62.04
2023-01-02T12:10:17.923Z,62.96
2023-01-02T12:15:17.829Z,64.52
2023-01-02T12:20:17.728Z,61.96
2023-01-02T12:25:17.718Z,62.40
2023-01-02T12:30:17.684Z,61.95
2023-01-02T12:35:17.521Z,65.29
2023-01-02T12:40:17.460Z,63.25
2023-01-02T12:45:17.431Z,59.77
2023-01-02T12:50:17.371Z,62.41
2023-01-02T12:55:17.297Z,66.23
2023-01-02T13:00:17.182Z,66.47
2023-01-02T13:05:17.154Z,64.67
2023-01-02T13:10:17.046Z,62.56
2023-01-02T13:15:17.041Z,64.61
2023-01-02T13:20:16.915Z,65.87
2023-01-02T13:25:16.941Z,67.31
2023-01-02T13:30:20.225Z,63.76
2023-01-02T13:35:16.755Z,69.57
2023-01-02T13:40:16.677Z,64.87
2023-01-02T13:45:16.649Z,71.87
2023-01-02T13:50:16.528Z,66.23
2023-01-02T13:55:16.471Z,64.97
2023-01-02T14:00:16.509Z,65.51
2023-01-02T14:05:16.368Z,66.25
2023-01-02T14:10:16.499Z,66.89
2023-01-02T14:15:16.275Z,67.63
2023-01-02T14:20:16.332Z,68.38
2023-01-02T14:25:16.157Z,68.58
2023-01-02T14:30:16.041Z,68.68
2023-01-02T14:35:15.965Z,69.53
2023-01-02T14:40:15.919Z,69.84
2023-01-02T14:45:15.991Z,69.97
2023-01-02T14:50:16.021Z,70.48
2023-01-02T14:55:15.825Z,70.99
2023-01-02T15:00:15.739Z,70.72
2023-01-02T15:05:15.559Z,71.12
2023-01-02T15:10:16.262Z,71.02
2023-01-02T15:15:15.442Z,71.26
2023-01-02T15:20:15.406Z,71.77
2023-01-02T15:25:15.585Z,72.08
2023-01-02T15:30:15.230Z,71.80
2023-01-02T15:35:15.152Z,78.44
2023-01-02T15:40:15.105Z,69.34
2023-01-02T15:45:15.122Z,66.79
2023-01-02T15:50:14.964Z,72.01
2023-01-02T15:55:14.940Z,72.69
2023-01-02T16:00:14.840Z,65.84
2023-01-02T16:05:14.879Z,69.47
2023-01-02T16:10:14.786Z,67.91
2023-01-02T16:15:14.641Z,65.31
2023-01-02T16:20:14.604Z,66.18
2023-01-02T16:25:14.554Z,73.74
2023-01-02T16:30:14.511Z,63.15
2023-01-02T16:35:14.429Z,72.96
2023-01-02T16:40:14.401Z,67.65
2023-01-02T16:45:14.295Z,68.85
2023-01-02T16:50:14.214Z,70.95
2023-01-02T16:55:14.134Z,70.28
2023-01-02T17:00:14.066Z,70.78
2023-01-02T17:05:13.994Z,69.13
2023-01-02T17:10:13.945Z,63.23
2023-01-02T17:15:13.889Z,63.13
2023-01-02T17:20:13.807Z,59.99
2023-01-02T17:25:13.740Z,59.35
2023-01-02T17:30:13.644Z,60.29
2023-01-02T17:35:13.578Z,58.75
2023-01-02T17:40:13.524Z,59.35
2023-01-02T17:45:13.463Z,56.05
2023-01-02T17:50:13.419Z,57.76
2023-01-02T17:55:13.335Z,59.34
2023-01-02T18:00:13.268Z,59.12
2023-01-02T18:05:13.186Z,61.68
2023-01-02T18:10:19.109Z,60.13
2023-01-02T18:15:14.082Z,61.24
2023-01-02T18:20:13.018Z,58.78
2023-01-02T18:25:12.928Z,61.95
2023-01-02T18:30:12.855Z,60.84
2023-01-02T18:35:46.807Z,60.97
2023-01-02T18:40:13.838Z,61.55
2023-01-02T18:45:12.696Z,62.10
2023-01-02T18:50:15.751Z,61.05
2023-01-02T18:55:13.571Z,58.50
2023-01-02T19:00:12.461Z,58.50
2023-01-02T19:05:12.432Z,59.71
2023-01-02T19:10:12.431Z,60.82
2023-01-02T19:15:12.301Z,59.21
2023-01-02T19:20:12.204Z,61.49
2023-01-02T19:25:12.166Z,61.11
2023-01-02T19:30:13.527Z,62.69
2023-01-02T19:35:12.993Z,62.02
2023-01-02T19:40:18.675Z,61.65
2023-01-02T19:45:12.977Z,61.14
2023-01-02T19:50:11.886Z,61.44
2023-01-02T19:55:11.855Z,61.95
2023-01-02T20:00:11.762Z,62.98
2023-01-02T20:05:13.620Z,61.37
2023-01-02T20:10:12.659Z,59.86
2023-01-02T20:15:11.495Z,62.57
2023-01-02T20:20:11.505Z,67.18
2023-01-02T20:25:11.450Z,69.24
2023-01-02T20:30:11.366Z,70.02
2023-01-02T20:35:11.233Z,73.12
2023-01-02T20:40:11.213Z,74.30
2023-01-02T20:45:11.151Z,74.10
2023-01-02T20:50:12.115Z,73.16
2023-01-02T20:55:11.105Z,74.41
2023-01-02T21:00:11.074Z,77.05
2023-01-02T21:05:10.883Z,78.44
2023-01-02T21:10:10.807Z,81.51
2023-01-02T21:15:10.750Z,79.60
2023-01-02T21:20:10.733Z,81.16
2023-01-02T21:25:10.598Z,82.66
2023-01-02T21:30:10.577Z,84.67
2023-01-02T21:35:10.469Z,86.80
2023-01-02T21:40:10.429Z,88.02
2023-01-02T21:45:10.389Z,89.67
2023-01-02T21:50:10.315Z,92.07
2023-01-02T21:55:10.234Z,91.56
2023-01-02T22:00:10.186Z,88.26
2023-01-02T22:05:10.168Z,89.11
2023-01-02T22:10:10.015Z,90.59
2023-01-02T22:15:09.962Z,91.86
2023-01-02T22:20:09.898Z,92.87
2023-01-02T22:25:09.804Z,95.62
2023-01-02T22:30:20.870Z,95.67
2023-01-02T22:35:10.716Z,96.49
2023-01-02T22:40:09.623Z,94.55
2023-01-02T22:45:09.542Z,93.99
2023-01-02T22:50:12.291Z,95.67
2023-01-02T22:55:09.419Z,94.55
2023-01-02T23:00:09.347Z,94.96
2023-01-02T23:05:09.264Z,91.15
2023-01-02T23:10:09.232Z,89.37
2023-01-02T23:15:09.162Z,86.35
2023-01-02T23:20:09.105Z,81.58
2023-01-02T23:25:09.023Z,82.23
2023-01-02T23:30:08.923Z,83.73
2023-01-02T23:35:08.925Z,85.00
2023-01-02T23:40:08.798Z,86.16
2023-01-02T23:45:08.776Z,86.77
2023-01-02T23:50:08.732Z,86.36
2023-01-02T23:55:08.646Z,85.55
